Time;durP1;ratioP1;P1;durP2;ratioP2;P2;SDS_P1;SDS_P2;PMS_P1;PMS_P2;Temp;Humidity;BMP_temperature;BMP_pressure;BME280_temperature;BME280_humidity;BME280_pressure;Samples;Min_cycle;Max_cycle;Signal;HPM_P1;HPM_P2
2022/09/10 00:00:05;;;;;;;14.07;11.35;;;;;;;20.97;62.45;94843.56;5007446;28;20250;-72
2022/09/10 00:02:31;;;;;;;12.02;10.55;;;;;;;20.95;62.48;94848.28;5009335;28;20245;-72
2022/09/10 00:04:59;;;;;;;11.63;10.43;;;;;;;20.92;62.60;94841.53;5010222;28;20306;-71
2022/09/10 00:07:25;;;;;;;11.80;10.52;;;;;;;20.97;62.16;94846.22;5009874;28;20911;-71
2022/09/10 00:09:50;;;;;;;11.40;10.10;;;;;;;20.92;62.19;94846.88;5011111;28;20198;-66
2022/09/10 00:12:15;;;;;;;12.20;10.60;;;;;;;20.92;62.21;94845.00;5011037;28;20230;-70
2022/09/10 00:14:41;;;;;;;14.57;10.15;;;;;;;20.95;62.00;94848.28;5005051;28;20639;-69
2022/09/10 00:17:06;;;;;;;11.52;10.30;;;;;;;20.95;62.18;94849.09;5007057;28;20227;-70
2022/09/10 00:19:32;;;;;;;13.63;10.10;;;;;;;20.95;61.97;94845.63;5009125;28;20278;-66
2022/09/10 00:21:58;;;;;;;11.23;9.68;;;;;;;20.99;62.08;94849.50;5010108;28;20207;-71
2022/09/10 00:24:24;;;;;;;12.02;10.85;;;;;;;20.94;61.83;94842.13;5009524;28;20247;-66
2022/09/10 00:26:49;;;;;;;11.38;9.90;;;;;;;20.98;61.45;94853.19;5007715;28;20238;-71
2022/09/10 00:29:15;;;;;;;12.68;11.27;;;;;;;20.96;61.54;94839.25;5010409;28;20674;-71
2022/09/10 00:31:42;;;;;;;11.00;9.52;;;;;;;20.68;62.89;94849.34;5010282;28;20609;-72
2022/09/10 00:34:09;;;;;;;16.17;10.30;;;;;;;20.97;61.55;94836.34;5003045;28;20207;-71
2022/09/10 00:36:40;;;;;;;11.43;9.95;;;;;;;20.99;61.55;94844.97;5007245;28;20236;-69
2022/09/10 00:39:09;;;;;;;13.05;10.20;;;;;;;21.10;61.67;94851.44;5007705;28;20231;-70
2022/09/10 00:41:37;;;;;;;11.98;10.70;;;;;;;21.09;61.53;94850.63;4997985;28;20225;-70
2022/09/10 00:44:06;;;;;;;11.88;10.30;;;;;;;21.03;61.96;94851.50;5009041;28;20230;-70
2022/09/10 00:46:47;;;;;;;12.82;10.10;;;;;;;20.27;64.99;94857.84;5007498;28;20222;-70
2022/09/10 00:49:21;;;;;;;11.30;9.90;;;;;;;20.76;63.45;94852.78;5010533;28;20209;-72
2022/09/10 00:51:48;;;;;;;10.77;9.68;;;;;;;20.86;62.72;94847.75;5005082;28;20233;-70
2022/09/10 00:54:17;;;;;;;11.02;10.18;;;;;;;20.97;62.05;94847.03;5001981;28;20218;-71
2022/09/10 00:56:44;;;;;;;11.75;10.45;;;;;;;20.87;62.68;94844.84;5000870;28;20223;-71
2022/09/10 00:59:13;;;;;;;10.85;9.68;;;;;;;20.81;62.70;94839.59;5002334;28;20235;-69
2022/09/10 01:01:39;;;;;;;14.45;10.35;;;;;;;20.81;62.65;94840.41;5009575;28;20293;-70
2022/09/10 01:04:06;;;;;;;12.02;10.57;;;;;;;21.01;61.73;94840.22;5007741;28;20299;-65
2022/09/10 01:06:32;;;;;;;13.82;10.15;;;;;;;20.90;62.16;94838.25;5005227;28;20265;-65
2022/09/10 01:09:00;;;;;;;13.93;11.27;;;;;;;21.01;61.71;94834.88;5005275;28;20839;-70
2022/09/10 01:11:48;;;;;;;11.38;10.18;;;;;;;20.96;62.17;94834.72;5007314;28;20474;-70
2022/09/10 01:14:46;;;;;;;11.95;10.60;;;;;;;20.89;62.29;94829.41;5006386;28;20225;-68
2022/09/10 01:17:48;;;;;;;11.43;10.43;;;;;;;20.79;63.06;94830.97;5003104;28;20775;-68
2022/09/10 01:20:34;;;;;;;10.68;9.68;;;;;;;20.76;63.51;94844.75;4969257;28;20239;-67
2022/09/10 01:23:11;;;;;;;12.30;11.10;;;;;;;20.89;61.92;94833.97;4974727;28;20243;-69
2022/09/10 01:25:49;;;;;;;12.68;10.60;;;;;;;20.90;62.01;94830.25;4955384;28;20212;-69
2022/09/10 01:28:22;;;;;;;10.88;9.95;;;;;;;20.77;62.99;94820.50;4966091;28;20235;-71
2022/09/10 01:30:55;;;;;;;11.73;10.07;;;;;;;20.84;62.88;94823.09;4961175;28;20232;-71
2022/09/10 01:33:36;;;;;;;10.52;9.63;;;;;;;20.82;63.01;94820.69;4956916;28;20765;-68
2022/09/10 01:36:15;;;;;;;11.52;10.50;;;;;;;20.79;63.25;94812.25;4944573;28;20289;-69
2022/09/10 01:38:41;;;;;;;11.05;9.20;;;;;;;20.79;63.24;94809.59;4967238;28;20227;-69
2022/09/10 01:41:07;;;;;;;10.38;9.52;;;;;;;20.85;63.09;94816.72;4971195;28;20227;-71
2022/09/10 01:43:33;;;;;;;11.38;10.05;;;;;;;20.87;62.97;94817.31;4954101;28;20216;-71
2022/09/10 01:46:20;;;;;;;12.07;10.40;;;;;;;20.86;62.88;94811.16;4965072;28;20311;-69
2022/09/10 01:48:58;;;;;;;12.27;10.15;;;;;;;20.90;62.74;94816.88;4952840;28;20235;-68
2022/09/10 01:51:42;;;;;;;10.52;9.60;;;;;;;20.90;62.44;94801.69;4953226;28;20254;-66
2022/09/10 01:54:39;;;;;;;13.73;9.90;;;;;;;20.86;62.60;94813.03;4968694;28;20420;-65
2022/09/10 01:57:29;;;;;;;12.23;10.20;;;;;;;20.88;62.37;94818.97;5004331;28;20305;-65
2022/09/10 02:00:00;;;;;;;11.65;10.45;;;;;;;20.84;62.34;94815.09;5003674;28;20247;-71
2022/09/10 02:02:31;;;;;;;10.88;9.88;;;;;;;20.88;62.23;94817.09;5007853;28;20223;-69
2022/09/10 02:05:00;;;;;;;12.13;10.05;;;;;;;20.86;62.20;94829.88;5007104;28;20230;-70
2022/09/10 02:07:28;;;;;;;13.23;10.75;;;;;;;20.98;61.98;94835.28;5007017;28;20215;-69
2022/09/10 02:09:54;;;;;;;10.82;9.93;;;;;;;20.92;61.99;94841.53;4990949;28;20702;-70
2022/09/10 02:12:21;;;;;;;11.00;10.00;;;;;;;21.02;62.04;94849.06;5007410;28;20220;-69
2022/09/10 02:14:49;;;;;;;11.82;10.50;;;;;;;20.95;62.45;94840.28;5014105;28;20645;-68
2022/09/10 02:17:15;;;;;;;12.27;10.88;;;;;;;20.85;62.91;94828.25;5009100;28;20242;-71
2022/09/10 02:19:43;;;;;;;11.07;10.00;;;;;;;20.80;63.12;94828.09;5007765;28;20253;-71
2022/09/10 02:22:09;;;;;;;11.85;10.23;;;;;;;20.65;63.86;94831.06;5004845;28;20207;-71
2022/09/10 02:24:35;;;;;;;11.77;10.48;;;;;;;20.67;63.92;94823.66;5006030;28;20525;-67
2022/09/10 02:27:00;;;;;;;11.27;10.07;;;;;;;20.68;63.85;94822.63;4997374;28;20326;-71
2022/09/10 02:29:26;;;;;;;11.98;10.77;;;;;;;20.75;63.50;94822.59;5004132;28;20231;-72
2022/09/10 02:31:51;;;;;;;13.48;10.02;;;;;;;20.71;63.35;94824.03;5003699;28;20221;-71
2022/09/10 02:34:17;;;;;;;12.95;10.35;;;;;;;20.71;63.51;94816.03;5002110;28;20203;-71
2022/09/10 02:36:43;;;;;;;13.18;9.60;;;;;;;20.67;63.77;94821.00;5008031;28;20227;-66
2022/09/10 02:39:08;;;;;;;12.23;10.80;;;;;;;20.68;63.79;94819.94;5005795;28;20223;-68
2022/09/10 02:41:34;;;;;;;11.15;9.98;;;;;;;20.60;64.21;94833.59;5006050;28;20210;-70
2022/09/10 02:44:01;;;;;;;12.65;10.32;;;;;;;20.49;64.52;94839.59;5003536;28;20198;-66
2022/09/10 02:46:27;;;;;;;14.30;10.75;;;;;;;20.60;64.17;94838.94;5002388;28;20223;-71
2022/09/10 02:48:53;;;;;;;11.73;10.55;;;;;;;20.69;63.67;94832.28;5008032;28;20810;-68
2022/09/10 02:51:20;;;;;;;11.45;10.07;;;;;;;20.66;63.64;94827.38;4999893;28;20872;-70
2022/09/10 02:53:45;;;;;;;12.35;11.13;;;;;;;20.59;64.39;94837.31;5003100;28;20207;-66
2022/09/10 02:56:11;;;;;;;13.00;10.93;;;;;;;20.55;64.66;94844.09;5007708;28;20234;-71
2022/09/10 02:58:37;;;;;;;13.25;10.57;;;;;;;20.58;64.53;94841.03;5007435;28;20226;-69
2022/09/10 03:01:07;;;;;;;10.68;9.68;;;;;;;20.50;64.76;94835.91;5000034;28;20270;-70
2022/09/10 03:03:33;;;;;;;11.02;9.93;;;;;;;20.17;65.87;94833.47;5008430;28;20227;-70
2022/09/10 03:05:58;;;;;;;12.07;10.82;;;;;;;20.37;65.36;94838.66;4998961;28;20698;-66
2022/09/10 03:08:24;;;;;;;12.18;10.80;;;;;;;20.60;64.39;94846.94;5011798;28;20266;-70
2022/09/10 03:10:49;;;;;;;12.13;10.40;;;;;;;20.53;64.42;94843.50;5010197;28;20223;-66
2022/09/10 03:13:14;;;;;;;12.57;10.52;;;;;;;20.47;64.64;94836.34;5009065;28;20227;-70
2022/09/10 03:15:42;;;;;;;11.35;10.18;;;;;;;20.58;64.15;94841.03;5009734;28;20561;-71
2022/09/10 03:18:08;;;;;;;12.13;10.88;;;;;;;20.54;64.40;94839.81;5011285;28;20207;-70
2022/09/10 03:20:33;;;;;;;11.68;10.45;;;;;;;20.62;63.92;94838.72;4992161;28;20222;-69
2022/09/10 03:22:59;;;;;;;13.00;11.20;;;;;;;20.56;64.18;94845.75;5012001;28;20265;-71
2022/09/10 03:25:24;;;;;;;12.20;10.90;;;;;;;20.53;63.99;94840.81;5006435;28;20685;-70
2022/09/10 03:27:51;;;;;;;11.95;10.82;;;;;;;20.56;63.96;94842.28;5006845;28;20890;-66
2022/09/10 03:30:16;;;;;;;13.77;11.00;;;;;;;20.63;63.90;94832.34;5007095;28;20306;-66
2022/09/10 03:32:42;;;;;;;12.07;10.80;;;;;;;20.58;63.78;94821.47;5007715;28;20206;-71
2022/09/10 03:35:08;;;;;;;12.27;11.05;;;;;;;20.50;64.09;94825.22;5007040;28;20241;-71
2022/09/10 03:37:34;;;;;;;12.48;11.00;;;;;;;20.44;64.55;94823.41;5010092;28;20219;-72
2022/09/10 03:39:59;;;;;;;11.57;10.57;;;;;;;20.37;64.89;94826.16;4997996;28;20226;-72
2022/09/10 03:42:25;;;;;;;11.90;10.57;;;;;;;20.38;64.66;94819.75;5009592;28;20269;-65
2022/09/10 03:44:51;;;;;;;11.85;10.75;;;;;;;20.44;64.84;94826.09;5011069;28;20664;-71
2022/09/10 03:47:17;;;;;;;12.23;9.75;;;;;;;20.34;65.10;94818.59;5007611;28;20353;-69
2022/09/10 03:49:42;;;;;;;12.13;10.93;;;;;;;20.33;65.31;94818.78;5000271;28;20707;-66
2022/09/10 03:52:11;;;;;;;12.80;10.45;;;;;;;20.35;65.33;94816.72;5003772;28;20231;-70
2022/09/10 03:54:37;;;;;;;12.00;10.90;;;;;;;20.39;65.17;94812.56;5010071;28;20386;-66
2022/09/10 03:57:02;;;;;;;11.40;10.25;;;;;;;20.43;65.10;94811.94;5011122;28;20206;-71
2022/09/10 03:59:28;;;;;;;11.65;10.25;;;;;;;20.42;65.20;94809.47;5010771;28;20207;-67
2022/09/10 04:01:54;;;;;;;11.13;10.05;;;;;;;20.41;65.03;94795.28;5010494;28;20273;-71
2022/09/10 04:04:19;;;;;;;11.93;10.73;;;;;;;20.42;65.07;94794.28;5010245;28;20215;-71
2022/09/10 04:06:45;;;;;;;12.00;10.10;;;;;;;20.43;65.08;94798.56;5010128;28;20297;-71
2022/09/10 04:09:11;;;;;;;12.20;10.23;;;;;;;20.43;65.15;94822.59;5008646;28;20210;-71
2022/09/10 04:11:36;;;;;;;11.63;10.20;;;;;;;20.41;65.29;94821.19;5003975;28;20206;-70
2022/09/10 04:14:02;;;;;;;11.65;10.45;;;;;;;20.38;65.45;94817.09;5005218;28;20866;-70
2022/09/10 04:16:27;;;;;;;12.15;10.98;;;;;;;20.45;65.01;94807.19;5010433;28;20277;-70
2022/09/10 04:18:53;;;;;;;10.90;9.82;;;;;;;20.48;64.77;94811.28;5010338;28;20281;-68
2022/09/10 04:21:19;;;;;;;14.93;10.48;;;;;;;20.48;64.91;94821.97;5008032;28;20219;-72
2022/09/10 04:23:44;;;;;;;11.90;10.65;;;;;;;20.48;65.18;94820.09;5008977;28;20207;-66
2022/09/10 04:26:16;;;;;;;11.73;10.32;;;;;;;20.51;64.85;94826.88;5009671;28;20234;-70
2022/09/10 04:28:42;;;;;;;13.15;11.13;;;;;;;20.62;64.35;94834.19;5004344;28;20324;-71
2022/09/10 04:31:08;;;;;;;11.73;10.57;;;;;;;20.62;64.43;94844.88;5019444;28;20249;-66
2022/09/10 04:33:33;;;;;;;13.02;11.60;;;;;;;20.59;64.24;94850.66;5000608;28;20218;-71
2022/09/10 04:36:02;;;;;;;12.68;10.85;;;;;;;20.35;65.23;94852.25;5007372;28;20206;-71
2022/09/10 04:38:29;;;;;;;12.80;11.10;;;;;;;20.41;65.43;94854.03;5006643;28;20661;-71
2022/09/10 04:40:56;;;;;;;12.77;11.57;;;;;;;20.48;65.18;94848.66;5000015;28;20234;-69
2022/09/10 04:43:25;;;;;;;14.68;10.85;;;;;;;20.41;65.35;94839.88;4998005;28;20978;-67
2022/09/10 04:45:54;;;;;;;12.30;11.07;;;;;;;20.44;65.24;94826.91;5008820;28;20282;-67
2022/09/10 04:48:21;;;;;;;13.93;10.18;;;;;;;20.44;65.24;94826.91;5009250;28;20655;-70
2022/09/10 04:50:46;;;;;;;12.45;11.10;;;;;;;20.39;65.98;94828.59;5007099;28;20336;-67
2022/09/10 04:53:12;;;;;;;12.48;11.18;;;;;;;20.50;65.07;94827.88;5004029;28;20267;-70
2022/09/10 04:55:41;;;;;;;15.15;11.27;;;;;;;20.53;65.27;94802.59;5006233;28;20223;-71
2022/09/10 04:58:07;;;;;;;12.77;11.48;;;;;;;20.50;65.45;94798.50;5002627;28;20235;-71
2022/09/10 05:00:32;;;;;;;13.25;10.77;;;;;;;20.55;66.37;94816.59;5008693;28;20223;-71
2022/09/10 05:02:58;;;;;;;15.52;11.32;;;;;;;20.33;66.53;94814.25;4999653;28;20211;-72
2022/09/10 05:05:23;;;;;;;12.85;11.32;;;;;;;20.41;66.85;94822.00;5009224;28;20210;-66
2022/09/10 05:07:49;;;;;;;12.93;11.65;;;;;;;20.49;66.42;94816.38;4999406;28;20278;-66
2022/09/10 05:10:14;;;;;;;13.55;11.35;;;;;;;20.56;66.26;94812.91;5008320;28;20227;-71
2022/09/10 05:12:40;;;;;;;13.15;11.50;;;;;;;20.56;66.37;94824.38;5005551;28;20206;-70
2022/09/10 05:15:06;;;;;;;12.80;11.50;;;;;;;20.62;65.88;94820.84;4994972;28;20319;-66
2022/09/10 05:17:32;;;;;;;12.30;11.02;;;;;;;20.64;65.52;94816.09;4999897;28;20199;-72
2022/09/10 05:19:58;;;;;;;13.32;11.10;;;;;;;20.69;65.29;94816.25;5006020;28;20214;-66
2022/09/10 05:22:24;;;;;;;17.70;12.20;;;;;;;20.82;64.61;94822.50;4999590;28;20250;-71
2022/09/10 05:24:49;;;;;;;13.40;12.20;;;;;;;20.75;64.74;94822.59;5007904;28;20219;-71
2022/09/10 05:27:15;;;;;;;12.77;11.50;;;;;;;20.70;64.79;94836.59;5006893;28;20317;-72
2022/09/10 05:29:41;;;;;;;15.25;12.07;;;;;;;20.75;65.23;94837.81;5001952;28;20220;-69
2022/09/10 05:32:08;;;;;;;15.50;11.98;;;;;;;20.75;65.29;94838.59;5007539;28;20707;-69
2022/09/10 05:34:34;;;;;;;13.20;11.68;;;;;;;20.78;66.04;94850.72;5000590;28;20282;-67
2022/09/10 05:36:59;;;;;;;14.85;13.10;;;;;;;20.78;66.83;94843.50;5005447;28;20199;-68
2022/09/10 05:39:25;;;;;;;14.75;12.20;;;;;;;20.67;67.46;94847.72;5006265;28;20297;-67
2022/09/10 05:41:51;;;;;;;12.75;11.45;;;;;;;20.65;67.70;94839.09;5006222;28;20246;-70
2022/09/10 05:44:17;;;;;;;13.73;12.40;;;;;;;20.79;68.27;94838.97;5005649;28;20238;-66
2022/09/10 05:46:42;;;;;;;16.00;12.65;;;;;;;20.89;67.95;94844.66;5008752;28;20230;-71
2022/09/10 05:49:08;;;;;;;15.32;12.73;;;;;;;20.89;67.71;94839.31;5008102;28;20219;-71
2022/09/10 05:51:34;;;;;;;14.95;12.65;;;;;;;20.90;67.16;94830.25;5007724;28;20284;-67
2022/09/10 05:53:59;;;;;;;15.00;13.15;;;;;;;20.96;66.29;94834.72;5006362;28;20230;-71
2022/09/10 05:56:25;;;;;;;13.88;12.32;;;;;;;21.00;66.02;94827.88;5000797;28;20493;-69
2022/09/10 05:58:52;;;;;;;14.35;12.85;;;;;;;21.15;65.21;94839.03;5008253;28;20230;-67
2022/09/10 06:01:17;;;;;;;16.95;13.18;;;;;;;20.90;64.74;94831.06;5002436;28;20278;-70
2022/09/10 06:03:43;;;;;;;14.40;12.73;;;;;;;21.28;63.47;94829.25;5008786;28;20892;-70
2022/09/10 06:06:08;;;;;;;15.98;13.35;;;;;;;21.52;62.90;94831.06;5007985;28;20218;-70
2022/09/10 06:08:34;;;;;;;16.52;13.13;;;;;;;21.76;62.11;94837.34;5004952;28;20452;-71
2022/09/10 06:11:05;;;;;;;17.75;12.68;;;;;;;21.87;61.35;94832.28;5003250;28;20645;-72
2022/09/10 06:13:32;;;;;;;14.48;12.80;;;;;;;21.96;60.21;94834.38;5008092;28;20206;-71
2022/09/10 06:15:58;;;;;;;12.95;11.50;;;;;;;21.90;60.15;94835.31;5005748;28;20946;-70
2022/09/10 06:18:23;;;;;;;15.80;13.65;;;;;;;21.95;59.30;94832.78;5002703;28;20223;-71
2022/09/10 06:20:49;;;;;;;15.57;13.13;;;;;;;21.98;59.35;94843.03;5001572;28;20254;-70
2022/09/10 06:23:15;;;;;;;15.48;13.52;;;;;;;21.80;59.71;94838.50;5006887;28;20214;-72
2022/09/10 06:25:41;;;;;;;13.93;12.63;;;;;;;21.80;59.62;94838.50;5005925;28;20204;-70
2022/09/10 06:28:08;;;;;;;13.27;11.98;;;;;;;21.76;59.71;94831.19;5005009;28;20232;-66
2022/09/10 06:30:34;;;;;;;15.55;12.07;;;;;;;21.73;59.72;94831.59;5006595;28;20223;-72
2022/09/10 06:32:59;;;;;;;13.50;11.80;;;;;;;21.87;59.22;94835.75;5007936;28;20789;-70
2022/09/10 06:35:26;;;;;;;13.30;12.05;;;;;;;21.39;60.49;94836.56;5010391;28;20245;-71
2022/09/10 06:37:52;;;;;;;12.77;11.55;;;;;;;21.40;60.18;94848.88;5012177;28;20683;-71
2022/09/10 06:40:17;;;;;;;12.50;11.23;;;;;;;21.43;60.40;94845.75;5012462;28;20432;-66
2022/09/10 06:42:43;;;;;;;14.15;12.85;;;;;;;21.46;60.52;94842.63;5008680;28;20282;-67
2022/09/10 06:45:09;;;;;;;14.35;13.15;;;;;;;21.45;60.69;94842.88;5008197;28;20257;-70
2022/09/10 06:47:34;;;;;;;15.15;13.10;;;;;;;21.42;60.70;94841.47;5001527;28;20242;-72
2022/09/10 06:50:00;;;;;;;13.90;12.45;;;;;;;21.20;61.73;94829.53;5011897;28;20219;-71
2022/09/10 06:52:28;;;;;;;17.08;12.75;;;;;;;21.35;61.58;94828.13;5010240;28;20274;-68
2022/09/10 06:54:53;;;;;;;15.25;13.65;;;;;;;21.47;61.04;94828.22;5010732;28;20230;-67
2022/09/10 06:57:19;;;;;;;15.75;11.82;;;;;;;21.61;60.77;94830.75;4999069;28;20223;-70
2022/09/10 06:59:44;;;;;;;12.85;11.35;;;;;;;21.86;59.87;94831.44;5010932;28;20223;-71
2022/09/10 07:02:10;;;;;;;12.40;11.15;;;;;;;21.92;59.85;94830.56;5011686;28;20305;-70
2022/09/10 07:04:35;;;;;;;14.23;11.23;;;;;;;22.00;59.83;94832.91;5010622;28;20206;-66
2022/09/10 07:07:01;;;;;;;14.95;11.90;;;;;;;22.15;59.26;94832.47;4995938;28;20215;-70
2022/09/10 07:09:27;;;;;;;12.18;10.75;;;;;;;22.25;58.71;94823.94;5007824;28;20234;-69
2022/09/10 07:11:52;;;;;;;11.13;10.05;;;;;;;22.19;58.54;94830.22;5009010;28;20594;-69
2022/09/10 07:14:18;;;;;;;13.65;10.48;;;;;;;22.44;58.03;94833.50;4997910;28;20223;-69
2022/09/10 07:16:45;;;;;;;12.73;9.85;;;;;;;22.63;57.06;94831.56;4999028;28;20207;-65
2022/09/10 07:19:16;;;;;;;11.00;9.90;;;;;;;22.67;57.44;94826.56;5011984;28;20223;-71
2022/09/10 07:21:41;;;;;;;11.88;9.95;;;;;;;22.74;56.63;94827.25;5006034;28;20219;-65
2022/09/10 07:24:09;;;;;;;12.93;10.35;;;;;;;22.59;56.81;94833.09;5009119;28;20219;-70
2022/09/10 07:26:35;;;;;;;11.70;10.50;;;;;;;22.62;56.83;94826.44;5019999;28;20232;-65
2022/09/10 07:29:00;;;;;;;12.10;10.63;;;;;;;22.66;56.56;94819.56;5003579;28;20559;-70
2022/09/10 07:31:29;;;;;;;12.35;11.23;;;;;;;22.65;56.70;94821.44;5010697;28;20235;-69
2022/09/10 07:33:59;;;;;;;11.68;10.50;;;;;;;22.68;56.43;94829.00;5004659;28;20234;-66
2022/09/10 07:36:25;;;;;;;10.73;9.55;;;;;;;22.83;55.78;94833.13;5009452;28;20891;-66
2022/09/10 07:38:53;;;;;;;10.95;9.85;;;;;;;22.82;55.19;94816.19;5008620;28;20310;-66
2022/09/10 07:41:18;;;;;;;10.60;9.48;;;;;;;22.97;55.06;94831.03;5008697;28;20218;-68
2022/09/10 07:43:44;;;;;;;15.00;10.73;;;;;;;22.89;55.23;94830.31;5001145;28;20211;-71
2022/09/10 07:46:19;;;;;;;11.48;10.38;;;;;;;23.21;54.53;94834.53;5012036;28;20284;-66
2022/09/10 07:48:47;;;;;;;11.07;9.45;;;;;;;23.27;54.29;94830.91;5010185;28;20220;-70
2022/09/10 07:51:17;;;;;;;10.68;9.30;;;;;;;23.19;54.58;94840.13;5000847;28;20231;-72
2022/09/10 07:53:43;;;;;;;11.85;10.13;;;;;;;23.39;53.47;94841.59;5002768;28;20246;-70
2022/09/10 07:56:09;;;;;;;12.05;9.57;;;;;;;23.32;53.23;94831.81;5019046;28;20223;-70
2022/09/10 07:58:36;;;;;;;12.40;10.20;;;;;;;23.28;53.82;94838.72;5001006;28;20505;-67
2022/09/10 08:01:07;;;;;;;11.52;10.05;;;;;;;23.38;53.77;94839.97;5024082;28;20195;-66
2022/09/10 08:03:33;;;;;;;10.77;9.60;;;;;;;23.48;52.50;94829.47;4987218;28;20215;-67
2022/09/10 08:06:03;;;;;;;10.05;8.93;;;;;;;23.36;52.64;94842.09;4995664;28;20285;-72
2022/09/10 08:08:30;;;;;;;10.43;8.77;;;;;;;23.29;52.88;94832.31;5016701;28;20292;-71
2022/09/10 08:11:07;;;;;;;9.93;9.00;;;;;;;23.64;51.40;94827.91;5001610;28;20230;-71
2022/09/10 08:13:38;;;;;;;11.82;9.55;;;;;;;23.71;51.78;94839.31;5007095;28;20230;-66
2022/09/10 08:16:08;;;;;;;12.02;8.90;;;;;;;23.82;51.54;94841.19;5008034;28;20242;-70
2022/09/10 08:18:34;;;;;;;12.88;9.65;;;;;;;23.91;51.00;94836.25;5006019;28;20296;-69
2022/09/10 08:21:01;;;;;;;10.00;9.02;;;;;;;23.89;51.73;94841.06;5009483;28;20269;-73
2022/09/10 08:23:27;;;;;;;9.90;8.93;;;;;;;23.92;51.71;94830.66;5007098;28;20203;-71
2022/09/10 08:25:54;;;;;;;10.63;9.52;;;;;;;24.27;50.47;94827.00;5001889;28;20223;-70
2022/09/10 08:28:21;;;;;;;13.57;10.32;;;;;;;24.69;49.04;94834.72;4989160;28;20231;-72
2022/09/10 08:31:01;;;;;;;12.25;10.48;;;;;;;24.85;48.51;94816.94;4989719;28;20306;-69
2022/09/10 08:33:28;;;;;;;11.30;9.45;;;;;;;24.90;48.58;94808.97;4974067;28;20219;-71
2022/09/10 08:35:58;;;;;;;11.25;10.10;;;;;;;25.07;48.85;94808.94;4986879;28;20227;-70
2022/09/10 08:38:32;;;;;;;13.30;9.65;;;;;;;25.39;48.02;94809.13;4990002;28;20234;-67
2022/09/10 08:40:58;;;;;;;11.18;10.23;;;;;;;25.39;47.85;94806.44;4986879;28;20224;-71
2022/09/10 08:43:41;;;;;;;14.93;10.55;;;;;;;25.38;47.86;94809.38;4983303;28;20238;-66
2022/09/10 08:46:19;;;;;;;10.77;9.68;;;;;;;25.00;48.45;94803.72;4981726;28;20242;-73
2022/09/10 08:48:47;;;;;;;10.43;9.43;;;;;;;25.16;48.39;94804.78;4988495;28;20227;-71
2022/09/10 08:51:22;;;;;;;13.70;9.82;;;;;;;25.27;48.10;94808.44;4989774;28;20223;-69
2022/09/10 08:53:58;;;;;;;13.88;10.85;;;;;;;25.49;47.60;94816.53;4986272;28;20206;-67
2022/09/10 08:56:25;;;;;;;10.82;9.55;;;;;;;25.49;47.39;94806.56;4989258;28;20723;-72
2022/09/10 08:59:05;;;;;;;14.32;10.70;;;;;;;25.48;47.61;94804.94;4989228;28;20481;-71
2022/09/10 09:01:43;;;;;;;13.05;10.18;;;;;;;24.94;49.12;94804.72;4982848;28;20314;-70
2022/09/10 09:04:16;;;;;;;14.00;10.88;;;;;;;24.82;49.40;94812.06;4971547;28;20227;-71
2022/09/10 09:06:55;;;;;;;12.25;10.48;;;;;;;25.00;49.25;94811.00;4981710;28;20243;-71
2022/09/10 09:09:21;;;;;;;14.50;10.75;;;;;;;25.00;49.57;94805.63;4989036;28;20290;-71
2022/09/10 09:11:55;;;;;;;10.77;9.75;;;;;;;24.95;49.83;94806.34;4987381;28;20211;-72
2022/09/10 09:14:32;;;;;;;11.05;9.95;;;;;;;24.91;49.24;94799.00;4989064;28;20252;-67
2022/09/10 09:17:19;;;;;;;14.15;10.20;;;;;;;24.93;49.50;94796.91;4982568;28;20294;-68
2022/09/10 09:19:53;;;;;;;13.52;9.70;;;;;;;24.95;49.34;94789.41;4987509;28;20287;-67
2022/09/10 09:22:19;;;;;;;13.82;10.70;;;;;;;24.91;49.99;94794.44;4988819;28;20551;-67
2022/09/10 09:25:02;;;;;;;13.32;10.00;;;;;;;24.68;49.98;94782.00;4987523;28;20235;-68
2022/09/10 09:27:34;;;;;;;11.05;9.82;;;;;;;24.66;49.95;94784.13;4998876;28;20239;-66
2022/09/10 09:30:05;;;;;;;12.45;10.20;;;;;;;24.67;50.07;94777.69;5015712;28;20265;-67
2022/09/10 09:32:39;;;;;;;19.05;10.70;;;;;;;24.70;49.91;94766.47;4995774;28;20191;-68
2022/09/10 09:35:35;;;;;;;16.30;10.73;;;;;;;24.74;50.09;94766.75;5002241;28;20329;-66
2022/09/10 09:38:19;;;;;;;13.23;10.88;;;;;;;24.86;49.26;94762.13;5006832;28;20263;-66
2022/09/10 09:40:48;;;;;;;16.42;11.20;;;;;;;24.81;50.48;94762.03;5007411;28;20349;-71
2022/09/10 09:43:39;;;;;;;12.10;10.05;;;;;;;24.89;49.86;94755.44;5006475;28;20470;-69
2022/09/10 09:46:11;;;;;;;21.65;10.68;;;;;;;24.93;49.87;94753.84;4999224;28;20229;-72
2022/09/10 09:48:39;;;;;;;11.90;10.80;;;;;;;24.93;51.13;94741.22;5004896;28;20234;-69
2022/09/10 09:51:10;;;;;;;14.77;10.90;;;;;;;25.03;48.64;94743.25;5008838;28;20230;-70
2022/09/10 09:53:35;;;;;;;11.95;10.70;;;;;;;25.00;48.88;94733.78;5005203;28;20293;-71
2022/09/10 09:56:06;;;;;;;11.75;10.50;;;;;;;24.96;49.72;94729.16;5008611;28;20672;-69
2022/09/10 09:58:34;;;;;;;14.75;10.07;;;;;;;24.89;48.94;94732.03;5004325;28;20310;-66
2022/09/10 10:01:02;;;;;;;12.15;9.93;;;;;;;25.01;48.85;94732.72;5004368;28;20258;-68
2022/09/10 10:03:34;;;;;;;15.80;10.10;;;;;;;25.09;48.90;94726.91;5007198;28;20229;-66
2022/09/10 10:06:11;;;;;;;11.70;9.98;;;;;;;25.12;48.41;94719.41;5006101;28;23203;-68
2022/09/10 10:08:39;;;;;;;12.73;10.05;;;;;;;25.21;48.33;94717.97;5000922;28;20214;-68
2022/09/10 10:11:06;;;;;;;14.73;9.55;;;;;;;25.40;47.84;94703.09;5002551;28;20227;-71
2022/09/10 10:13:40;;;;;;;12.80;11.27;;;;;;;25.74;46.61;94701.06;4998447;28;20223;-66
2022/09/10 10:16:28;;;;;;;11.68;9.98;;;;;;;25.81;47.21;94710.81;4999577;28;20519;-66
2022/09/10 10:18:54;;;;;;;11.38;9.57;;;;;;;26.34;46.04;94692.97;4994810;28;20496;-66
2022/09/10 10:21:28;;;;;;;10.88;9.60;;;;;;;26.67;44.73;94694.56;5007482;28;20234;-69
2022/09/10 10:23:54;;;;;;;12.35;10.00;;;;;;;26.83;44.26;94680.09;5005421;28;20210;-69
2022/09/10 10:26:19;;;;;;;12.50;10.27;;;;;;;26.95;43.63;94676.41;5008920;28;20241;-68
2022/09/10 10:28:54;;;;;;;11.38;9.75;;;;;;;27.18;43.60;94684.06;5007139;28;20561;-70
2022/09/10 10:31:20;;;;;;;12.77;9.60;;;;;;;27.53;42.47;94687.97;5001779;28;20219;-71
2022/09/10 10:34:03;;;;;;;11.10;9.27;;;;;;;27.88;43.18;94689.13;5003075;28;20761;-68
2022/09/10 10:37:14;;;;;;;11.80;8.90;;;;;;;28.27;41.22;94684.03;5004761;28;20699;-70
2022/09/10 10:39:40;;;;;;;9.98;8.93;;;;;;;28.21;40.30;94678.91;4947826;28;20220;-71
2022/09/10 10:42:19;;;;;;;12.18;8.98;;;;;;;27.92;40.54;94674.03;4948456;28;20224;-70
2022/09/10 10:45:22;;;;;;;10.68;9.50;;;;;;;27.84;41.84;94677.25;4951375;28;20315;-71
2022/09/10 10:47:59;;;;;;;22.60;18.55;;;;;;;27.97;41.51;94676.75;4947176;28;20309;-70
2022/09/10 10:50:52;;;;;;;13.40;9.65;;;;;;;28.02;41.38;94673.25;4960206;28;20219;-70
2022/09/10 10:53:39;;;;;;;13.48;9.55;;;;;;;28.28;40.78;94649.69;4951940;28;20384;-71
2022/09/10 10:56:13;;;;;;;11.93;8.90;;;;;;;28.89;39.57;94652.31;4960514;28;20348;-70
2022/09/10 10:58:49;;;;;;;10.15;8.60;;;;;;;29.49;38.98;94652.38;4950049;28;20228;-70
2022/09/10 11:01:28;;;;;;;12.63;8.43;;;;;;;29.49;38.38;94649.66;4953093;28;20227;-71
2022/09/10 11:04:19;;;;;;;9.30;8.32;;;;;;;29.86;37.09;94643.75;4937608;28;20658;-66
2022/09/10 11:06:50;;;;;;;11.35;8.80;;;;;;;29.88;36.55;94644.31;4963490;28;20228;-70
2022/09/10 11:09:27;;;;;;;11.25;7.93;;;;;;;30.21;36.53;94628.31;4947257;28;20251;-68
2022/09/10 11:12:00;;;;;;;15.30;8.73;;;;;;;30.37;36.43;94633.59;4964896;28;20227;-70
2022/09/10 11:14:39;;;;;;;11.23;8.73;;;;;;;30.25;35.75;94647.56;4948458;28;20302;-66
2022/09/10 11:17:14;;;;;;;13.15;8.98;;;;;;;30.48;34.78;94641.38;4992066;28;20231;-70
2022/09/10 11:20:06;;;;;;;13.70;8.93;;;;;;;30.46;35.35;94645.47;5021028;28;20703;-72
2022/09/10 11:22:38;;;;;;;12.13;8.85;;;;;;;30.05;35.89;94675.63;4997574;28;20222;-66
2022/09/10 11:25:39;;;;;;;19.70;8.57;;;;;;;28.80;39.55;94698.06;5007956;28;20230;-71
2022/09/10 11:28:13;;;;;;;16.60;6.55;;;;;;;27.40;42.84;94737.06;5007690;28;20235;-72
2022/09/10 11:30:43;;;;;;;9.57;4.97;;;;;;;26.72;43.33;94721.56;5000664;28;20306;-71